createdAt,value
2023-03-27T00:02:04.928Z,1.30
2023-03-27T00:04:31.498Z,1.02
2023-03-27T00:06:59.457Z,1.47
2023-03-27T00:09:27.843Z,1.50
2023-03-27T00:11:56.414Z,2.10
2023-03-27T00:14:24.001Z,1.80
2023-03-27T00:16:51.416Z,1.30
2023-03-27T00:19:19.013Z,1.50
2023-03-27T00:21:45.640Z,1.23
2023-03-27T00:24:12.344Z,0.70
2023-03-27T00:26:40.606Z,0.85
2023-03-27T00:29:08.029Z,0.73
2023-03-27T00:31:34.873Z,1.70
2023-03-27T00:34:01.887Z,2.70
2023-03-27T00:36:28.356Z,0.65
2023-03-27T00:38:54.929Z,0.95
2023-03-27T00:41:22.213Z,2.50
2023-03-27T00:43:51.115Z,0.97
2023-03-27T00:46:24.252Z,1.50
2023-03-27T00:48:52.232Z,1.20
2023-03-27T00:51:19.672Z,1.40
2023-03-27T00:53:47.220Z,2.55
2023-03-27T00:56:18.345Z,1.77
2023-03-27T00:58:48.961Z,2.70
2023-03-27T01:01:17.075Z,2.53
2023-03-27T01:03:46.587Z,2.88
2023-03-27T01:06:16.954Z,1.73
2023-03-27T01:08:45.446Z,1.20
2023-03-27T01:11:36.814Z,2.97
2023-03-27T01:14:12.425Z,1.30
2023-03-27T01:16:52.369Z,2.75
2023-03-27T01:19:53.407Z,4.82
2023-03-27T01:22:42.776Z,2.17
2023-03-27T01:25:21.233Z,0.75
2023-03-27T01:28:04.695Z,4.25
2023-03-27T01:31:10.119Z,1.38
2023-03-27T01:33:48.104Z,3.30
2023-03-27T01:36:24.538Z,2.33
2023-03-27T01:39:25.357Z,5.32
2023-03-27T01:42:04.404Z,3.35
2023-03-27T01:44:43.141Z,1.88
2023-03-27T01:47:22.060Z,1.45
2023-03-27T01:49:53.413Z,1.23
2023-03-27T01:52:26.056Z,1.70
2023-03-27T01:55:03.289Z,2.70
2023-03-27T01:57:34.674Z,1.63
2023-03-27T02:00:18.238Z,2.75
2023-03-27T02:03:07.988Z,1.03
2023-03-27T02:05:38.812Z,3.28
2023-03-27T02:08:11.842Z,2.22
2023-03-27T02:10:42.253Z,2.00
2023-03-27T02:13:14.474Z,3.10
2023-03-27T02:15:42.711Z,6.13
2023-03-27T02:18:13.039Z,1.73
2023-03-27T02:20:41.658Z,0.80
2023-03-27T02:23:08.692Z,2.28
2023-03-27T02:25:45.995Z,3.22
2023-03-27T02:28:31.512Z,1.50
2023-03-27T02:31:32.900Z,1.70
2023-03-27T02:34:21.621Z,3.33
2023-03-27T02:36:58.009Z,1.73
2023-03-27T02:39:54.474Z,2.72
2023-03-27T02:42:23.777Z,6.10
2023-03-27T02:44:53.806Z,2.25
2023-03-27T02:47:50.164Z,3.08
2023-03-27T02:50:20.176Z,3.40
2023-03-27T02:52:51.379Z,3.38
2023-03-27T02:55:29.943Z,2.10
2023-03-27T02:58:00.182Z,4.13
2023-03-27T03:00:28.357Z,2.30
2023-03-27T03:03:11.213Z,1.98
2023-03-27T03:05:38.138Z,2.88
2023-03-27T03:08:05.575Z,1.63
2023-03-27T03:10:33.339Z,4.95
2023-03-27T03:12:59.840Z,2.35
2023-03-27T03:15:27.090Z,3.35
2023-03-27T03:17:53.971Z,1.98
2023-03-27T03:20:21.543Z,7.70
2023-03-27T03:22:49.303Z,4.03
2023-03-27T03:25:15.825Z,5.18
2023-03-27T03:27:44.206Z,4.30
2023-03-27T03:30:11.003Z,5.78
2023-03-27T03:32:44.315Z,3.60
2023-03-27T03:35:11.945Z,2.90
2023-03-27T03:37:38.784Z,3.25
2023-03-27T03:40:11.987Z,4.32
2023-03-27T03:42:49.610Z,5.45
2023-03-27T03:45:16.867Z,3.50
2023-03-27T03:47:44.465Z,5.10
2023-03-27T03:50:14.631Z,3.10
2023-03-27T03:52:41.725Z,6.40
2023-03-27T03:55:10.484Z,2.97
2023-03-27T03:57:36.943Z,4.13
2023-03-27T04:00:12.161Z,5.53
2023-03-27T04:02:41.206Z,3.28
2023-03-27T04:05:10.462Z,3.83
2023-03-27T04:07:37.155Z,5.20
2023-03-27T04:10:04.039Z,3.30
2023-03-27T04:12:30.546Z,5.25
2023-03-27T04:14:57.128Z,4.38
2023-03-27T04:17:26.291Z,5.72
2023-03-27T04:19:57.268Z,4.53
2023-03-27T04:22:23.964Z,4.10
2023-03-27T04:24:53.647Z,5.00
2023-03-27T04:27:23.475Z,4.93
2023-03-27T04:29:50.030Z,7.05
2023-03-27T04:32:20.089Z,5.13
2023-03-27T04:34:48.267Z,5.60
2023-03-27T04:37:15.224Z,5.55
2023-03-27T04:39:43.455Z,5.15
2023-03-27T04:42:12.896Z,4.20
2023-03-27T04:44:39.496Z,7.25
2023-03-27T04:47:08.751Z,4.60
2023-03-27T04:49:40.704Z,5.82
2023-03-27T04:52:07.752Z,4.57
2023-03-27T04:54:35.275Z,4.78
2023-03-27T04:57:03.373Z,5.65
2023-03-27T04:59:33.400Z,5.70
2023-03-27T05:02:01.536Z,6.32
2023-03-27T05:04:28.858Z,5.93
2023-03-27T05:06:56.658Z,6.05
2023-03-27T05:09:23.682Z,5.35
2023-03-27T05:11:51.103Z,5.60
2023-03-27T05:14:22.237Z,10.00
2023-03-27T05:16:52.518Z,7.38
2023-03-27T05:19:20.176Z,6.28
2023-03-27T05:21:47.458Z,6.82
2023-03-27T05:24:15.470Z,7.40
2023-03-27T05:26:43.271Z,8.38
2023-03-27T05:29:09.907Z,9.65
2023-03-27T05:31:37.407Z,7.65
2023-03-27T05:34:04.227Z,7.50
2023-03-27T05:36:30.692Z,8.57
2023-03-27T05:38:57.971Z,8.30
2023-03-27T05:41:24.972Z,11.10
2023-03-27T05:43:51.766Z,7.95
2023-03-27T05:46:20.896Z,12.10
2023-03-27T05:48:48.220Z,7.47
2023-03-27T05:51:14.850Z,7.82
2023-03-27T05:53:42.560Z,7.97
2023-03-27T05:56:10.947Z,6.65
2023-03-27T05:58:38.632Z,6.82
2023-03-27T06:01:05.892Z,7.13
2023-03-27T06:03:35.698Z,7.00
2023-03-27T06:06:10.281Z,7.18
2023-03-27T06:08:37.229Z,6.63
2023-03-27T06:11:11.273Z,6.75
2023-03-27T06:13:38.154Z,9.40
2023-03-27T06:16:05.704Z,7.28
2023-03-27T06:18:33.564Z,7.60
2023-03-27T06:21:00.461Z,7.97
2023-03-27T06:23:27.233Z,6.20
2023-03-27T06:25:53.805Z,8.33
2023-03-27T06:28:20.725Z,5.40
2023-03-27T06:30:47.821Z,7.20
2023-03-27T06:33:15.247Z,6.40
2023-03-27T06:35:53.512Z,5.65
2023-03-27T06:38:21.111Z,7.97
2023-03-27T06:40:47.876Z,6.90
2023-03-27T06:43:18.134Z,8.20
2023-03-27T06:45:46.545Z,6.68
2023-03-27T06:48:20.614Z,7.22
2023-03-27T06:50:49.261Z,6.67
2023-03-27T06:53:26.667Z,6.85
2023-03-27T06:55:55.064Z,5.78
2023-03-27T06:58:22.172Z,8.70
2023-03-27T07:00:49.639Z,7.30
2023-03-27T07:03:18.012Z,7.73
2023-03-27T07:05:44.922Z,6.13
2023-03-27T07:10:44.635Z,7.88
2023-03-27T07:13:12.977Z,4.82
2023-03-27T07:15:39.559Z,3.13
2023-03-27T07:18:07.423Z,3.83
2023-03-27T07:20:35.304Z,4.30
2023-03-27T07:23:02.193Z,2.45
2023-03-27T07:25:37.234Z,3.85
2023-03-27T07:28:06.346Z,2.33
2023-03-27T07:30:33.796Z,2.65
2023-03-27T07:33:00.453Z,4.03
2023-03-27T07:35:27.102Z,4.28
2023-03-27T07:37:54.113Z,5.00
2023-03-27T07:40:29.298Z,7.77
2023-03-27T07:42:59.739Z,5.60
2023-03-27T07:45:26.289Z,4.70
2023-03-27T07:47:53.038Z,8.25
2023-03-27T07:50:21.734Z,6.75
2023-03-27T07:52:49.195Z,4.07
2023-03-27T07:55:18.894Z,4.15
2023-03-27T07:57:59.241Z,4.78
2023-03-27T08:00:27.862Z,4.82
2023-03-27T08:03:07.612Z,3.67
2023-03-27T08:05:35.264Z,6.03
2023-03-27T08:08:01.940Z,5.93
2023-03-27T08:10:28.411Z,3.50
2023-03-27T08:12:54.959Z,4.50
2023-03-27T08:15:25.006Z,2.85
2023-03-27T08:17:54.473Z,6.20
2023-03-27T08:20:22.809Z,5.47
2023-03-27T08:22:51.398Z,4.47
2023-03-27T08:25:18.202Z,3.60
2023-03-27T08:27:45.039Z,3.22
2023-03-27T08:30:16.539Z,4.80
2023-03-27T08:32:43.928Z,2.90
2023-03-27T08:35:10.625Z,3.03
2023-03-27T08:37:37.080Z,3.97
2023-03-27T08:40:08.752Z,4.45
2023-03-27T08:42:37.916Z,3.37
2023-03-27T08:45:14.819Z,2.13
2023-03-27T08:47:46.325Z,4.70
2023-03-27T08:50:43.352Z,3.35
2023-03-27T08:53:38.902Z,2.50
2023-03-27T08:56:06.940Z,3.87
2023-03-27T08:58:34.585Z,5.18
2023-03-27T09:01:08.821Z,3.53
2023-03-27T09:03:56.713Z,4.10
2023-03-27T09:06:26.913Z,4.45
2023-03-27T09:09:34.210Z,2.27
2023-03-27T09:12:13.112Z,3.85
2023-03-27T09:15:13.112Z,5.47
2023-03-27T09:17:44.733Z,4.40
2023-03-27T09:20:24.007Z,3.35
2023-03-27T09:22:54.634Z,2.60
2023-03-27T09:25:46.614Z,4.90
2023-03-27T09:28:25.926Z,3.72
2023-03-27T09:30:53.063Z,3.05
2023-03-27T09:33:19.895Z,2.13
2023-03-27T09:35:46.597Z,1.63
2023-03-27T09:38:23.939Z,3.80
2023-03-27T09:41:02.894Z,3.42
2023-03-27T09:43:39.365Z,4.53
2023-03-27T09:46:06.365Z,2.63
2023-03-27T09:48:39.697Z,1.57
2023-03-27T09:51:35.118Z,1.52
2023-03-27T09:54:01.894Z,3.55
2023-03-27T09:56:29.468Z,3.38
2023-03-27T09:58:57.266Z,2.25
2023-03-27T10:01:34.253Z,1.83
2023-03-27T10:04:02.904Z,2.05
2023-03-27T10:06:29.519Z,1.88
2023-03-27T10:09:01.006Z,0.98
2023-03-27T10:11:32.566Z,0.77
2023-03-27T10:14:00.960Z,1.77
2023-03-27T10:16:28.285Z,1.13
2023-03-27T10:18:57.898Z,2.20
2023-03-27T10:21:32.134Z,3.38
2023-03-27T10:24:04.403Z,1.77
2023-03-27T10:26:36.072Z,2.77
2023-03-27T10:29:18.882Z,1.13
2023-03-27T10:31:52.796Z,1.45
2023-03-27T10:34:58.442Z,1.95
2023-03-27T10:37:29.210Z,5.68
2023-03-27T10:40:09.426Z,1.37
2023-03-27T10:42:38.191Z,6.40
2023-03-27T10:45:14.765Z,2.63
2023-03-27T10:47:54.781Z,4.22
2023-03-27T10:50:28.858Z,1.15
2023-03-27T10:52:59.696Z,2.20
2023-03-27T10:55:36.687Z,1.63
2023-03-27T10:58:08.701Z,2.20
2023-03-27T11:00:41.785Z,2.40
2023-03-27T11:03:18.997Z,4.85
2023-03-27T11:05:53.696Z,4.93
2023-03-27T11:08:48.796Z,4.40
2023-03-27T11:11:37.107Z,3.03
2023-03-27T11:14:30.422Z,0.93
2023-03-27T11:16:58.780Z,2.20
2023-03-27T11:19:37.643Z,1.17
2023-03-27T11:22:11.443Z,1.73
2023-03-27T11:24:48.891Z,2.25
2023-03-27T11:27:23.342Z,3.45
2023-03-27T11:30:05.626Z,4.03
2023-03-27T11:32:37.785Z,3.43
2023-03-27T11:35:15.885Z,1.40
2023-03-27T11:37:59.671Z,2.65
2023-03-27T11:40:35.215Z,3.28
2023-03-27T11:43:05.110Z,5.55
2023-03-27T11:45:45.402Z,2.40
2023-03-27T11:48:36.981Z,3.88
2023-03-27T11:51:11.608Z,3.13
2023-03-27T11:54:03.575Z,0.93
2023-03-27T11:57:06.969Z,1.25
2023-03-27T11:59:48.800Z,2.33
2023-03-27T12:02:56.327Z,0.45
2023-03-27T12:05:53.486Z,2.05
2023-03-27T12:08:41.051Z,3.22
2023-03-27T12:11:12.726Z,3.13
2023-03-27T12:13:58.146Z,2.87
2023-03-27T12:16:35.497Z,2.78
2023-03-27T12:19:21.186Z,2.00
2023-03-27T12:22:23.614Z,3.90
2023-03-27T12:25:06.491Z,2.25
2023-03-27T12:27:46.335Z,2.27
2023-03-27T12:30:26.552Z,2.33
2023-03-27T12:33:00.395Z,2.35
2023-03-27T12:35:31.510Z,1.58
2023-03-27T12:38:04.246Z,7.00
2023-03-27T12:41:13.916Z,0.97
2023-03-27T12:43:45.596Z,0.90
2023-03-27T12:46:24.204Z,3.22
2023-03-27T12:49:06.313Z,2.92
2023-03-27T12:51:39.329Z,0.80
2023-03-27T12:54:33.124Z,1.70
2023-03-27T12:57:14.594Z,2.05
2023-03-27T12:59:59.774Z,1.50
2023-03-27T13:03:04.043Z,0.77
2023-03-27T13:05:57.147Z,3.05
2023-03-27T13:08:45.489Z,3.37
2023-03-27T13:11:34.000Z,1.20
2023-03-27T13:14:27.842Z,0.73
2023-03-27T13:17:20.216Z,2.13
2023-03-27T13:19:52.672Z,2.95
2023-03-27T13:22:39.490Z,0.60
2023-03-27T13:25:34.594Z,0.60
2023-03-27T13:28:34.945Z,1.60
2023-03-27T13:31:06.035Z,1.13
2023-03-27T13:33:44.165Z,1.10
2023-03-27T13:36:14.539Z,1.30
2023-03-27T13:38:47.340Z,1.90
2023-03-27T13:41:36.283Z,2.45
2023-03-27T13:44:11.277Z,2.63
2023-03-27T13:46:39.353Z,1.75
2023-03-27T13:49:43.775Z,1.27
2023-03-27T13:52:16.700Z,1.27
2023-03-27T13:55:10.685Z,1.45
2023-03-27T13:57:46.049Z,1.77
2023-03-27T14:00:23.522Z,0.73
2023-03-27T14:03:10.891Z,1.00
2023-03-27T14:05:57.084Z,1.35
2023-03-27T14:08:57.227Z,2.25
2023-03-27T14:11:50.443Z,1.73
2023-03-27T14:14:34.886Z,0.80
2023-03-27T14:17:07.564Z,2.80
2023-03-27T14:19:44.605Z,2.78
2023-03-27T14:22:16.418Z,2.63
2023-03-27T14:25:16.970Z,0.80
2023-03-27T14:27:45.642Z,0.77
2023-03-27T14:30:21.671Z,0.90
2023-03-27T14:32:51.806Z,4.30
2023-03-27T14:35:38.226Z,1.55
2023-03-27T14:38:08.926Z,1.65
2023-03-27T14:40:38.753Z,1.77
2023-03-27T14:43:07.188Z,0.60
2023-03-27T14:45:36.773Z,0.98
2023-03-27T14:48:06.763Z,0.82
2023-03-27T14:50:34.517Z,1.83
2023-03-27T14:53:05.709Z,2.17
2023-03-27T14:55:36.016Z,0.83
2023-03-27T14:58:11.217Z,1.05
2023-03-27T15:00:40.516Z,2.80
2023-03-27T15:03:15.899Z,2.92
2023-03-27T15:06:02.139Z,1.35
2023-03-27T15:08:33.707Z,5.83
2023-03-27T15:11:00.416Z,1.73
2023-03-27T15:13:34.180Z,2.22
2023-03-27T15:16:01.149Z,2.92
2023-03-27T15:18:34.206Z,1.67
2023-03-27T15:21:04.456Z,3.00
2023-03-27T15:23:36.796Z,1.30
2023-03-27T15:26:09.487Z,4.60
2023-03-27T15:28:42.371Z,4.10
2023-03-27T15:31:10.025Z,3.55
2023-03-27T15:33:47.484Z,2.47
2023-03-27T15:36:28.596Z,3.63
2023-03-27T15:38:56.338Z,2.47
2023-03-27T15:41:31.982Z,5.35
2023-03-27T15:44:09.718Z,2.28
2023-03-27T15:46:57.917Z,1.40
2023-03-27T15:49:33.466Z,4.60
2023-03-27T15:52:01.688Z,4.32
2023-03-27T15:54:36.605Z,2.55
2023-03-27T15:57:11.651Z,2.75
2023-03-27T15:59:52.068Z,3.97
2023-03-27T16:02:21.180Z,2.40
2023-03-27T16:04:54.968Z,1.63
2023-03-27T16:07:48.505Z,1.17
2023-03-27T16:10:31.836Z,1.35
2023-03-27T16:13:03.730Z,1.50
2023-03-27T16:15:31.459Z,3.40
2023-03-27T16:18:02.858Z,2.20
2023-03-27T16:20:35.158Z,2.70
2023-03-27T16:23:02.218Z,4.13
2023-03-27T16:25:28.771Z,1.47
2023-03-27T16:27:55.474Z,1.25
2023-03-27T16:30:32.452Z,3.28
2023-03-27T16:32:59.918Z,1.23
2023-03-27T16:35:27.766Z,1.92
2023-03-27T16:37:54.693Z,1.83
2023-03-27T16:40:21.369Z,3.00
2023-03-27T16:42:47.841Z,1.95
2023-03-27T16:45:14.426Z,2.80
2023-03-27T16:47:41.804Z,2.85
2023-03-27T16:50:15.893Z,2.40
2023-03-27T16:52:42.395Z,3.03
2023-03-27T16:55:09.225Z,2.08
2023-03-27T16:57:36.613Z,2.35
2023-03-27T17:00:05.398Z,2.67
2023-03-27T17:02:34.683Z,2.37
2023-03-27T17:05:02.115Z,5.05
2023-03-27T17:07:28.735Z,2.60
2023-03-27T17:09:55.599Z,1.67
2023-03-27T17:12:22.382Z,3.88
2023-03-27T17:14:48.958Z,2.67
2023-03-27T17:17:15.454Z,1.63
2023-03-27T17:19:42.004Z,5.72
2023-03-27T17:22:09.485Z,5.43
2023-03-27T17:24:49.237Z,3.65
2023-03-27T17:27:23.081Z,8.13
2023-03-27T17:29:51.313Z,5.50
2023-03-27T17:32:17.827Z,7.05
2023-03-27T17:34:44.328Z,4.97
2023-03-27T17:37:12.431Z,5.65
2023-03-27T17:39:39.027Z,6.70
2023-03-27T17:42:06.597Z,4.80
2023-03-27T17:44:33.206Z,4.95
2023-03-27T17:47:00.504Z,5.05
2023-03-27T17:49:31.927Z,5.70
2023-03-27T17:51:58.483Z,5.87
2023-03-27T17:54:25.012Z,5.53
2023-03-27T17:56:51.629Z,7.20
2023-03-27T17:59:18.170Z,5.20
2023-03-27T18:01:45.558Z,5.45
2023-03-27T18:04:12.253Z,6.47
2023-03-27T18:06:39.246Z,4.32
2023-03-27T18:09:09.402Z,5.88
2023-03-27T18:11:35.991Z,6.20
2023-03-27T18:14:02.639Z,6.80
2023-03-27T18:16:57.092Z,4.73
2023-03-27T18:19:25.230Z,7.07
2023-03-27T18:21:51.798Z,6.40
2023-03-27T18:24:18.811Z,6.28
2023-03-27T18:26:45.586Z,5.60
2023-03-27T18:29:13.297Z,8.60
2023-03-27T18:31:40.604Z,7.30
2023-03-27T18:34:08.411Z,6.07
2023-03-27T18:36:35.643Z,7.47
2023-03-27T18:39:03.332Z,11.00
2023-03-27T18:41:30.646Z,8.33
2023-03-27T18:43:57.574Z,8.93
2023-03-27T18:46:24.545Z,11.07
2023-03-27T18:48:51.530Z,12.45
2023-03-27T18:51:19.030Z,11.48
2023-03-27T18:53:46.788Z,12.73
2023-03-27T18:56:13.769Z,15.27
2023-03-27T18:58:40.957Z,12.65
2023-03-27T19:01:09.850Z,14.15
2023-03-27T19:03:37.868Z,11.43
2023-03-27T19:06:06.828Z,13.90
2023-03-27T19:08:34.719Z,13.13
2023-03-27T19:11:01.785Z,16.15
2023-03-27T19:13:31.655Z,14.10
2023-03-27T19:15:58.812Z,19.05
2023-03-27T19:18:28.572Z,16.03
2023-03-27T19:20:57.033Z,14.52
2023-03-27T19:23:24.558Z,15.23
2023-03-27T19:25:51.953Z,15.48
2023-03-27T19:28:18.928Z,17.70
2023-03-27T19:30:46.333Z,15.93
2023-03-27T19:33:13.493Z,15.20
2023-03-27T19:35:40.475Z,17.45
2023-03-27T19:38:07.420Z,16.10
2023-03-27T19:40:34.440Z,18.20
2023-03-27T19:43:01.333Z,17.20
2023-03-27T19:45:29.281Z,20.73
2023-03-27T19:47:56.397Z,23.67
2023-03-27T19:50:23.541Z,24.75
2023-03-27T19:53:05.304Z,24.95
2023-03-27T19:55:35.609Z,23.00
2023-03-27T19:58:03.361Z,24.35
2023-03-27T20:00:31.506Z,21.08
2023-03-27T20:02:59.724Z,20.02
2023-03-27T20:05:27.966Z,17.63
2023-03-27T20:07:55.150Z,18.93
2023-03-27T20:10:22.761Z,19.27
2023-03-27T20:12:49.591Z,21.88
2023-03-27T20:15:16.686Z,23.77
2023-03-27T20:17:44.803Z,22.42
2023-03-27T20:20:11.937Z,20.73
2023-03-27T20:22:50.220Z,23.05
2023-03-27T20:25:21.639Z,22.98
2023-03-27T20:27:48.426Z,23.50
2023-03-27T20:30:15.637Z,23.98
2023-03-27T20:32:44.038Z,25.97
2023-03-27T20:35:22.944Z,23.65
2023-03-27T20:37:56.588Z,21.33
2023-03-27T20:40:26.832Z,24.25
2023-03-27T20:43:03.285Z,22.02
2023-03-27T20:45:31.244Z,23.67
2023-03-27T20:48:03.470Z,22.25
2023-03-27T20:50:32.535Z,22.67
2023-03-27T20:52:59.393Z,19.63
2023-03-27T20:55:33.747Z,21.95
2023-03-27T20:58:06.828Z,22.47
2023-03-27T21:00:34.046Z,21.48
2023-03-27T21:03:01.187Z,20.58
2023-03-27T21:05:29.846Z,20.10
2023-03-27T21:07:58.407Z,21.83
2023-03-27T21:10:25.477Z,16.83
2023-03-27T21:12:55.546Z,17.13
2023-03-27T21:15:22.734Z,19.73
2023-03-27T21:17:49.742Z,22.33
2023-03-27T21:20:17.097Z,18.30
2023-03-27T21:22:44.049Z,18.57
2023-03-27T21:25:11.034Z,18.40
2023-03-27T21:27:38.372Z,18.88
2023-03-27T21:30:08.335Z,15.43
2023-03-27T21:32:35.692Z,17.65
2023-03-27T21:35:02.746Z,15.93
2023-03-27T21:37:29.518Z,17.30
2023-03-27T21:40:05.167Z,17.40
2023-03-27T21:42:32.283Z,18.17
2023-03-27T21:44:58.767Z,16.88
2023-03-27T21:47:34.435Z,18.10
2023-03-27T21:50:08.229Z,18.35
2023-03-27T21:52:35.073Z,16.83
2023-03-27T21:55:03.158Z,18.75
2023-03-27T21:57:30.295Z,19.73
2023-03-27T21:59:57.190Z,18.07
2023-03-27T22:02:23.925Z,17.13
2023-03-27T22:04:50.637Z,19.38
2023-03-27T22:07:17.677Z,17.27
2023-03-27T22:09:46.774Z,16.48
2023-03-27T22:12:13.480Z,18.27
2023-03-27T22:14:40.505Z,17.83
2023-03-27T22:17:07.580Z,17.10
2023-03-27T22:19:34.099Z,16.65
2023-03-27T22:22:01.393Z,17.55
2023-03-27T22:24:28.455Z,15.97
2023-03-27T22:26:55.457Z,18.70
2023-03-27T22:29:22.189Z,20.50
2023-03-27T22:31:48.769Z,18.40
2023-03-27T22:34:15.369Z,20.38
2023-03-27T22:36:41.949Z,16.57
2023-03-27T22:39:08.452Z,19.75
2023-03-27T22:41:34.913Z,16.80
2023-03-27T22:44:04.324Z,19.25
2023-03-27T22:46:31.120Z,20.52
2023-03-27T22:48:58.358Z,15.87
2023-03-27T22:51:25.360Z,21.42
2023-03-27T22:53:51.854Z,19.13
2023-03-27T22:56:18.325Z,16.90
2023-03-27T22:58:45.714Z,15.43
2023-03-27T23:01:12.584Z,13.07
2023-03-27T23:03:39.509Z,15.77
2023-03-27T23:06:06.441Z,14.32
2023-03-27T23:08:33.020Z,13.93
2023-03-27T23:11:01.914Z,15.32
2023-03-27T23:13:30.478Z,16.40
2023-03-27T23:15:58.502Z,12.77
2023-03-27T23:18:25.467Z,15.45
2023-03-27T23:20:58.588Z,15.52
2023-03-27T23:23:26.490Z,11.00
2023-03-27T23:25:54.114Z,11.00
2023-03-27T23:28:20.933Z,13.35
2023-03-27T23:30:55.015Z,11.10
2023-03-27T23:33:24.878Z,7.22
2023-03-27T23:35:52.931Z,8.95
2023-03-27T23:38:19.461Z,10.57
2023-03-27T23:40:45.993Z,12.27
2023-03-27T23:43:12.716Z,9.02
2023-03-27T23:45:39.196Z,8.85
2023-03-27T23:48:05.894Z,9.20
2023-03-27T23:50:32.405Z,11.13
2023-03-27T23:52:58.966Z,7.93
2023-03-27T23:55:25.607Z,7.00
2023-03-27T23:57:52.163Z,13.45
